Terminal Aerodrome Forecast
Issued by NWS

Home | Current Version | Previous Version | Text Only | Print | Product List | Glossary Off
Versions: 1 2 3 4 5 6 7 8 9 10 11 12 13 14 15 16 17 18 19 20 21 22 23 24

000
FTUS43 KTOP 221100
TAFFOE
TAF
KFOE 221123Z 2212/2312 21007KT 1SM -DZ BR OVC004
      TEMPO 2212/2215 1SM BR OVC005
     FM221700 19012KT 5SM BR BKN015 OVC025
     FM230700 18012KT 2SM BR OVC007=

USA.gov is the U.S. government's official web portal to all federal, state and local government web resources and services.